Briefing drone pour Pont-de-l'arche

Rechercher une autre localisation

Conditions de vol :


Nous sommes le : Mardi 25 janvier 2022
Il est 02:10 UTC (03:10 LT)

Lever de soleil : 07:09 UTC (08:09 LT)
Coucher de soleil : 17:05 UTC (18:05 LT)

Météo

L'essentiel des conditions de vol

VIGILANCE MÉTÉO FRANCE - Eure (27)
Pas de vigilances particulieres
CARTE TEMSI
CARTES DES FRONTS
METAR de LFOP
LFOP 250200Z AUTO 09004KT 1600 BR NSC M01/M01 Q1031

Date d'émission: 25/01/2022
Heure d'émission: 02:00 UTC
Vent: 090° pour 4 KT (7 km/h)
Visibilité horizontale: 1600 m
Plafond : Pas de nuages significatifs (NSC)
Température: -1 °C
Point de rosée: -1 °C
Humidité: 100%
Pression (QNH): 1031 hPa
Conditions: Brume
TAF de LFOP
LFOP 242101Z 2421/2518 CNL

Conditions prévues :

Heure d'émission : Bulletin éffectué le 24 à 21:00 UTC
Prévision : Valide du 24 a 21:00 UTC au 25 a 18:00 UTC
Nuages : à 0ft (0 m)
WEBCAM POUR PONT-DE-L'ARCHE

Réglementation

Voler en sécurité

CARTES AERONAUTIQUE 1/500.000
CARTES VAC (LFOP)
SUP AIP




Chargement des AIP...
NOTAM (PONT-DE-L'ARCHE + Terrain à proximité / FIR )




Chargement des NOTAMS...
CONTACT PREFECTURE 27


Avertissement : Les données mises à disposition sont indicatives. Oxygène Drone ne pourra être tenu responsable de dégâts causés aux biens et aux personnes.